sensor_id;sensor_type;location;lat;lon;timestamp;temperature;humidity
10231;DHT22;62604;49.432;8.680;2023-04-03T15:07:03;9.60;18.50
10231;DHT22;62604;49.432;8.680;2023-04-03T15:09:31;9.70;19.90
10231;DHT22;62604;49.432;8.680;2023-04-03T15:12:01;9.60;18.30
10231;DHT22;62604;49.432;8.680;2023-04-03T15:14:28;10.10;18.20
10231;DHT22;62604;49.432;8.680;2023-04-03T15:16:56;9.50;17.70
10231;DHT22;62604;49.432;8.680;2023-04-03T15:19:23;9.20;18.00
10231;DHT22;62604;49.432;8.680;2023-04-03T15:21:51;9.10;19.00
10231;DHT22;62604;49.432;8.680;2023-04-03T15:24:20;8.90;19.50
10231;DHT22;62604;49.432;8.680;2023-04-03T15:26:48;8.90;19.70
10231;DHT22;62604;49.432;8.680;2023-04-03T15:29:15;9.20;19.60
10231;DHT22;62604;49.432;8.680;2023-04-03T15:31:42;9.30;19.00
10231;DHT22;62604;49.432;8.680;2023-04-03T15:34:09;9.70;19.00
10231;DHT22;62604;49.432;8.680;2023-04-03T15:36:38;10.20;18.30
10231;DHT22;62604;49.432;8.680;2023-04-03T15:39:05;10.40;18.00
10231;DHT22;62604;49.432;8.680;2023-04-03T15:41:35;10.10;16.40
10231;DHT22;62604;49.432;8.680;2023-04-03T15:44:02;10.40;17.30
10231;DHT22;62604;49.432;8.680;2023-04-03T15:46:32;9.70;16.40
10231;DHT22;62604;49.432;8.680;2023-04-03T15:48:59;9.10;16.00
10231;DHT22;62604;49.432;8.680;2023-04-03T15:51:27;9.20;16.80
10231;DHT22;62604;49.432;8.680;2023-04-03T15:53:54;9.30;17.10
10231;DHT22;62604;49.432;8.680;2023-04-03T15:56:21;9.40;16.50
10231;DHT22;62604;49.432;8.680;2023-04-03T15:58:50;9.50;16.90
10231;DHT22;62604;49.432;8.680;2023-04-03T16:01:17;9.70;17.00
10231;DHT22;62604;49.432;8.680;2023-04-03T16:03:45;9.90;17.60
10231;DHT22;62604;49.432;8.680;2023-04-03T16:06:13;9.40;17.70
10231;DHT22;62604;49.432;8.680;2023-04-03T16:08:40;9.40;18.50
10231;DHT22;62604;49.432;8.680;2023-04-03T16:11:08;9.00;18.30
10231;DHT22;62604;49.432;8.680;2023-04-03T16:13:35;9.20;19.10
10231;DHT22;62604;49.432;8.680;2023-04-03T16:16:08;9.10;18.40
10231;DHT22;62604;49.432;8.680;2023-04-03T16:18:36;9.30;18.40
10231;DHT22;62604;49.432;8.680;2023-04-03T16:21:06;9.10;18.50
10231;DHT22;62604;49.432;8.680;2023-04-03T16:23:34;8.80;18.00
10231;DHT22;62604;49.432;8.680;2023-04-03T16:26:01;8.40;18.10
10231;DHT22;62604;49.432;8.680;2023-04-03T16:28:30;8.30;18.50
10231;DHT22;62604;49.432;8.680;2023-04-03T16:31:00;8.20;19.10
10231;DHT22;62604;49.432;8.680;2023-04-03T16:33:31;8.30;19.90
10231;DHT22;62604;49.432;8.680;2023-04-03T16:35:58;8.40;19.70
10231;DHT22;62604;49.432;8.680;2023-04-03T16:38:27;8.50;19.70
10231;DHT22;62604;49.432;8.680;2023-04-03T16:40:57;8.50;19.50
10231;DHT22;62604;49.432;8.680;2023-04-03T16:43:33;8.60;20.20
10231;DHT22;62604;49.432;8.680;2023-04-03T16:46:02;8.50;20.00
10231;DHT22;62604;49.432;8.680;2023-04-03T16:48:32;8.30;18.50
10231;DHT22;62604;49.432;8.680;2023-04-03T16:50:59;8.10;18.00
10231;DHT22;62604;49.432;8.680;2023-04-03T16:53:27;8.20;19.50
10231;DHT22;62604;49.432;8.680;2023-04-03T16:55:56;8.10;18.80
10231;DHT22;62604;49.432;8.680;2023-04-03T16:58:24;8.00;19.40
10231;DHT22;62604;49.432;8.680;2023-04-03T17:00:51;8.00;20.00
10231;DHT22;62604;49.432;8.680;2023-04-03T17:03:19;7.90;20.00
10231;DHT22;62604;49.432;8.680;2023-04-03T17:05:48;7.80;20.10
10231;DHT22;62604;49.432;8.680;2023-04-03T17:08:17;7.80;20.30
10231;DHT22;62604;49.432;8.680;2023-04-03T17:10:44;7.70;20.20
10231;DHT22;62604;49.432;8.680;2023-04-03T17:13:11;7.70;19.00
10231;DHT22;62604;49.432;8.680;2023-04-03T17:15:38;7.60;19.20
10231;DHT22;62604;49.432;8.680;2023-04-03T17:18:06;7.60;19.60
10231;DHT22;62604;49.432;8.680;2023-04-03T17:20:33;7.50;19.70
10231;DHT22;62604;49.432;8.680;2023-04-03T17:23:03;7.50;20.30
10231;DHT22;62604;49.432;8.680;2023-04-03T17:25:30;7.40;20.90
10231;DHT22;62604;49.432;8.680;2023-04-03T17:27:57;7.40;19.90
10231;DHT22;62604;49.432;8.680;2023-04-03T17:30:23;7.30;20.20
10231;DHT22;62604;49.432;8.680;2023-04-03T17:32:50;7.30;20.40
10231;DHT22;62604;49.432;8.680;2023-04-03T17:35:17;7.20;21.50
10231;DHT22;62604;49.432;8.680;2023-04-03T17:37:44;7.10;21.70
10231;DHT22;62604;49.432;8.680;2023-04-03T17:40:15;7.00;22.20
10231;DHT22;62604;49.432;8.680;2023-04-03T17:42:43;6.90;22.90
10231;DHT22;62604;49.432;8.680;2023-04-03T17:45:10;6.80;22.70
10231;DHT22;62604;49.432;8.680;2023-04-03T17:47:37;6.80;22.30
10231;DHT22;62604;49.432;8.680;2023-04-03T17:50:05;6.80;22.00
10231;DHT22;62604;49.432;8.680;2023-04-03T17:52:32;6.80;21.80
10231;DHT22;62604;49.432;8.680;2023-04-03T17:54:59;6.80;22.20
10231;DHT22;62604;49.432;8.680;2023-04-03T17:57:27;6.60;23.40
10231;DHT22;62604;49.432;8.680;2023-04-03T17:59:56;6.50;24.30
10231;DHT22;62604;49.432;8.680;2023-04-03T18:02:22;6.40;24.00
10231;DHT22;62604;49.432;8.680;2023-04-03T18:04:50;6.50;23.70
10231;DHT22;62604;49.432;8.680;2023-04-03T18:07:17;6.40;23.80
10231;DHT22;62604;49.432;8.680;2023-04-03T18:09:45;6.40;23.70
10231;DHT22;62604;49.432;8.680;2023-04-03T18:12:13;6.40;23.80
10231;DHT22;62604;49.432;8.680;2023-04-03T18:14:41;6.40;23.70
10231;DHT22;62604;49.432;8.680;2023-04-03T18:17:09;6.30;23.70
10231;DHT22;62604;49.432;8.680;2023-04-03T18:19:36;6.30;24.40
10231;DHT22;62604;49.432;8.680;2023-04-03T18:22:06;6.30;24.00
10231;DHT22;62604;49.432;8.680;2023-04-03T18:24:35;6.20;24.30
10231;DHT22;62604;49.432;8.680;2023-04-03T18:27:04;6.20;24.50
10231;DHT22;62604;49.432;8.680;2023-04-03T18:29:34;6.20;24.10
10231;DHT22;62604;49.432;8.680;2023-04-03T18:32:04;6.20;24.10
10231;DHT22;62604;49.432;8.680;2023-04-03T18:34:32;6.10;24.40
10231;DHT22;62604;49.432;8.680;2023-04-03T18:36:59;6.10;25.00
10231;DHT22;62604;49.432;8.680;2023-04-03T18:39:28;6.00;25.10
10231;DHT22;62604;49.432;8.680;2023-04-03T18:41:55;6.00;24.70
10231;DHT22;62604;49.432;8.680;2023-04-03T18:44:24;5.90;25.40
10231;DHT22;62604;49.432;8.680;2023-04-03T18:46:53;5.90;25.40
10231;DHT22;62604;49.432;8.680;2023-04-03T18:49:22;5.80;25.60
10231;DHT22;62604;49.432;8.680;2023-04-03T18:51:49;5.80;25.80
10231;DHT22;62604;49.432;8.680;2023-04-03T18:54:16;5.80;25.50
10231;DHT22;62604;49.432;8.680;2023-04-03T18:56:45;5.80;25.80
10231;DHT22;62604;49.432;8.680;2023-04-03T18:59:12;5.70;26.00
10231;DHT22;62604;49.432;8.680;2023-04-03T19:01:39;5.80;25.60
10231;DHT22;62604;49.432;8.680;2023-04-03T19:04:07;5.80;25.80
10231;DHT22;62604;49.432;8.680;2023-04-03T19:06:36;5.70;25.90
10231;DHT22;62604;49.432;8.680;2023-04-03T19:09:04;5.60;26.30
10231;DHT22;62604;49.432;8.680;2023-04-03T19:11:32;5.60;26.60
10231;DHT22;62604;49.432;8.680;2023-04-03T19:13:59;5.60;26.30
10231;DHT22;62604;49.432;8.680;2023-04-03T19:16:26;5.60;26.00
10231;DHT22;62604;49.432;8.680;2023-04-03T19:18:53;5.50;26.40
10231;DHT22;62604;49.432;8.680;2023-04-03T19:21:20;5.50;26.70
10231;DHT22;62604;49.432;8.680;2023-04-03T19:23:48;5.50;26.90
10231;DHT22;62604;49.432;8.680;2023-04-03T19:26:15;5.40;27.20
10231;DHT22;62604;49.432;8.680;2023-04-03T19:28:42;5.40;26.90
10231;DHT22;62604;49.432;8.680;2023-04-03T19:31:13;5.40;27.10
10231;DHT22;62604;49.432;8.680;2023-04-03T19:33:40;5.30;27.30
10231;DHT22;62604;49.432;8.680;2023-04-03T19:36:08;5.30;27.30
10231;DHT22;62604;49.432;8.680;2023-04-03T19:38:38;5.30;27.50
10231;DHT22;62604;49.432;8.680;2023-04-03T19:41:09;5.30;27.30
10231;DHT22;62604;49.432;8.680;2023-04-03T19:43:37;5.20;27.70
10231;DHT22;62604;49.432;8.680;2023-04-03T19:46:04;5.20;27.80
10231;DHT22;62604;49.432;8.680;2023-04-03T19:48:32;5.10;27.90
10231;DHT22;62604;49.432;8.680;2023-04-03T19:50:59;5.10;28.00
10231;DHT22;62604;49.432;8.680;2023-04-03T19:53:26;5.00;28.40
10231;DHT22;62604;49.432;8.680;2023-04-03T19:55:54;5.00;28.30
10231;DHT22;62604;49.432;8.680;2023-04-03T19:58:24;4.90;28.50
10231;DHT22;62604;49.432;8.680;2023-04-03T20:00:52;5.00;28.60
10231;DHT22;62604;49.432;8.680;2023-04-03T20:03:19;4.90;28.80
10231;DHT22;62604;49.432;8.680;2023-04-03T20:05:46;4.80;29.10
10231;DHT22;62604;49.432;8.680;2023-04-03T20:08:13;4.80;28.90
10231;DHT22;62604;49.432;8.680;2023-04-03T20:10:40;4.80;29.10
10231;DHT22;62604;49.432;8.680;2023-04-03T20:13:08;4.80;28.90
10231;DHT22;62604;49.432;8.680;2023-04-03T20:15:38;4.80;28.90
10231;DHT22;62604;49.432;8.680;2023-04-03T20:18:06;4.70;29.10
10231;DHT22;62604;49.432;8.680;2023-04-03T20:20:33;4.80;28.80
10231;DHT22;62604;49.432;8.680;2023-04-03T20:23:06;4.70;29.30
10231;DHT22;62604;49.432;8.680;2023-04-03T20:25:39;4.60;29.00
10231;DHT22;62604;49.432;8.680;2023-04-03T20:28:06;4.60;29.20
10231;DHT22;62604;49.432;8.680;2023-04-03T20:30:33;4.60;29.50
10231;DHT22;62604;49.432;8.680;2023-04-03T20:33:02;4.50;29.30
10231;DHT22;62604;49.432;8.680;2023-04-03T20:35:30;4.40;29.80
10231;DHT22;62604;49.432;8.680;2023-04-03T20:37:58;4.30;30.20
10231;DHT22;62604;49.432;8.680;2023-04-03T20:40:25;4.30;30.20
10231;DHT22;62604;49.432;8.680;2023-04-03T20:42:53;4.30;29.80
10231;DHT22;62604;49.432;8.680;2023-04-03T20:45:20;4.30;30.50
10231;DHT22;62604;49.432;8.680;2023-04-03T20:47:47;4.20;30.90
10231;DHT22;62604;49.432;8.680;2023-04-03T20:50:18;4.10;31.30
10231;DHT22;62604;49.432;8.680;2023-04-03T20:52:45;4.20;30.30
10231;DHT22;62604;49.432;8.680;2023-04-03T20:55:13;4.10;30.50
10231;DHT22;62604;49.432;8.680;2023-04-03T20:57:41;4.10;30.60
10231;DHT22;62604;49.432;8.680;2023-04-03T21:00:09;4.00;31.10
10231;DHT22;62604;49.432;8.680;2023-04-03T21:02:38;4.00;31.80
10231;DHT22;62604;49.432;8.680;2023-04-03T21:05:06;3.90;31.50
10231;DHT22;62604;49.432;8.680;2023-04-03T21:19:23;4.00;30.50
10231;DHT22;62604;49.432;8.680;2023-04-03T21:21:51;4.00;30.60
10231;DHT22;62604;49.432;8.680;2023-04-03T21:24:20;4.00;31.10
10231;DHT22;62604;49.432;8.680;2023-04-03T21:26:48;3.90;30.50
10231;DHT22;62604;49.432;8.680;2023-04-03T21:29:15;3.90;30.70
10231;DHT22;62604;49.432;8.680;2023-04-03T21:31:50;4.00;30.40
10231;DHT22;62604;49.432;8.680;2023-04-03T21:34:17;3.90;30.50
10231;DHT22;62604;49.432;8.680;2023-04-03T21:36:46;3.90;30.50
10231;DHT22;62604;49.432;8.680;2023-04-03T21:39:14;3.80;31.10
10231;DHT22;62604;49.432;8.680;2023-04-03T21:41:41;3.80;31.40
10231;DHT22;62604;49.432;8.680;2023-04-03T21:44:08;3.70;31.10
10231;DHT22;62604;49.432;8.680;2023-04-03T21:46:35;3.70;31.20
10231;DHT22;62604;49.432;8.680;2023-04-03T21:49:02;3.70;31.90
10231;DHT22;62604;49.432;8.680;2023-04-03T21:51:29;3.60;32.00
10231;DHT22;62604;49.432;8.680;2023-04-03T21:53:57;3.60;32.30
10231;DHT22;62604;49.432;8.680;2023-04-03T21:56:24;3.50;32.80
10231;DHT22;62604;49.432;8.680;2023-04-03T21:58:51;3.50;32.80
10231;DHT22;62604;49.432;8.680;2023-04-03T22:01:19;3.40;33.30
10231;DHT22;62604;49.432;8.680;2023-04-03T22:03:47;3.40;33.50
10231;DHT22;62604;49.432;8.680;2023-04-03T22:06:18;3.40;33.60
10231;DHT22;62604;49.432;8.680;2023-04-03T22:08:44;3.30;34.20
10231;DHT22;62604;49.432;8.680;2023-04-03T22:11:14;3.30;34.50
10231;DHT22;62604;49.432;8.680;2023-04-03T22:13:42;3.30;34.10
10231;DHT22;62604;49.432;8.680;2023-04-03T22:16:09;3.30;34.10
10231;DHT22;62604;49.432;8.680;2023-04-03T22:18:37;3.30;33.80
10231;DHT22;62604;49.432;8.680;2023-04-03T22:21:04;3.30;34.00
10231;DHT22;62604;49.432;8.680;2023-04-03T22:23:33;3.20;33.60
10231;DHT22;62604;49.432;8.680;2023-04-03T22:26:00;3.20;33.70
10231;DHT22;62604;49.432;8.680;2023-04-03T22:28:30;3.20;34.60
10231;DHT22;62604;49.432;8.680;2023-04-03T22:31:00;3.20;33.00
10231;DHT22;62604;49.432;8.680;2023-04-03T22:33:27;3.20;33.60
10231;DHT22;62604;49.432;8.680;2023-04-03T22:35:53;3.20;32.90
10231;DHT22;62604;49.432;8.680;2023-04-03T22:38:20;3.20;32.60
10231;DHT22;62604;49.432;8.680;2023-04-03T22:40:55;3.20;33.00
10231;DHT22;62604;49.432;8.680;2023-04-03T22:43:23;3.20;33.30
10231;DHT22;62604;49.432;8.680;2023-04-03T22:45:52;3.10;33.40
10231;DHT22;62604;49.432;8.680;2023-04-03T22:48:19;3.10;33.40
10231;DHT22;62604;49.432;8.680;2023-04-03T22:50:46;3.10;33.00
10231;DHT22;62604;49.432;8.680;2023-04-03T22:53:14;3.10;32.90
10231;DHT22;62604;49.432;8.680;2023-04-03T22:55:41;3.10;33.00
10231;DHT22;62604;49.432;8.680;2023-04-03T22:58:08;3.00;33.90
10231;DHT22;62604;49.432;8.680;2023-04-03T23:00:35;3.00;33.60
10231;DHT22;62604;49.432;8.680;2023-04-03T23:03:03;3.00;33.70
10231;DHT22;62604;49.432;8.680;2023-04-03T23:05:30;3.00;33.60
10231;DHT22;62604;49.432;8.680;2023-04-03T23:07:57;2.90;33.70
10231;DHT22;62604;49.432;8.680;2023-04-03T23:10:24;2.90;33.60
